Terminal Aerodrome Forecast
Issued by NWS Pocatello, ID

Home | Current Version | Previous Version | Text Only | Print | Product List | Glossary On
Versions: 1 2 3 4 5 6 7 8 9 10 11 12 13 14 15
403
FTUS45 KPIH 252320
TAFPIH
TAF
KPIH 252320Z 2600/2624 26008KT P6SM FEW090
     FM260200 VRB06KT P6SM SKC
     FM261700 29009KT P6SM SKC=

USA.gov is the U.S. government's official web portal to all federal, state and local government web resources and services.